createdAt,value
2018-01-02T00:00:43.599Z,6.78
2018-01-02T00:03:11.261Z,8.15
2018-01-02T00:05:39.712Z,7.30
2018-01-02T00:08:08.068Z,6.45
2018-01-02T00:10:35.633Z,9.30
2018-01-02T00:13:03.197Z,8.15
2018-01-02T00:15:30.854Z,6.97
2018-01-02T00:17:58.502Z,10.13
2018-01-02T00:20:26.069Z,8.32
2018-01-02T00:22:53.648Z,7.03
2018-01-02T00:25:21.252Z,7.57
2018-01-02T00:27:48.911Z,8.23
2018-01-02T00:30:16.602Z,14.60
2018-01-02T00:32:44.165Z,6.10
2018-01-02T00:35:11.757Z,10.30
2018-01-02T00:37:40.170Z,7.82
2018-01-02T00:40:08.597Z,8.50
2018-01-02T00:42:36.203Z,7.82
2018-01-02T00:45:04.569Z,7.97
2018-01-02T00:47:32.112Z,5.20
2018-01-02T00:49:59.865Z,10.15
2018-01-02T00:52:27.510Z,9.48
2018-01-02T00:54:55.079Z,6.07
2018-01-02T00:57:23.134Z,3.42
2018-01-02T00:59:50.719Z,3.90
2018-01-02T01:02:18.329Z,3.72
2018-01-02T01:04:45.952Z,7.28
2018-01-02T01:07:13.549Z,10.02
2018-01-02T01:09:41.862Z,8.85
2018-01-02T01:12:09.423Z,6.32
2018-01-02T01:14:37.112Z,5.97
2018-01-02T01:17:04.664Z,6.28
2018-01-02T01:19:32.959Z,5.60
2018-01-02T01:22:01.367Z,9.48
2018-01-02T01:24:28.917Z,8.20
2018-01-02T01:26:57.390Z,5.87
2018-01-02T01:29:25.725Z,5.15
2018-01-02T01:31:53.282Z,7.12
2018-01-02T01:34:20.863Z,10.50
2018-01-02T01:36:48.460Z,5.68
2018-01-02T01:39:16.005Z,4.60
2018-01-02T01:41:44.395Z,8.18
2018-01-02T01:44:12.798Z,7.20
2018-01-02T01:46:40.344Z,8.45
2018-01-02T01:49:07.999Z,7.97
2018-01-02T01:51:35.669Z,7.82
2018-01-02T01:54:03.250Z,7.40
2018-01-02T01:56:30.852Z,7.62
2018-01-02T01:58:59.003Z,9.00
2018-01-02T02:01:27.399Z,8.48
2018-01-02T02:03:54.961Z,10.30
2018-01-02T02:06:23.244Z,7.85
2018-01-02T02:08:50.813Z,10.20
2018-01-02T02:11:19.202Z,12.95
2018-01-02T02:13:47.558Z,11.30
2018-01-02T02:16:15.134Z,7.55
2018-01-02T02:18:43.731Z,9.23
2018-01-02T02:21:12.047Z,8.63
2018-01-02T02:23:39.658Z,14.57
2018-01-02T02:26:08.768Z,8.30
2018-01-02T02:28:36.333Z,12.40
2018-01-02T02:31:03.974Z,8.40
2018-01-02T02:33:31.512Z,13.45
2018-01-02T02:35:59.777Z,8.77
2018-01-02T02:38:27.941Z,8.57
2018-01-02T02:41:07.505Z,13.98
2018-01-02T02:43:35.075Z,8.30
2018-01-02T02:46:02.819Z,10.00
2018-01-02T02:48:30.427Z,9.43
2018-01-02T02:50:57.979Z,6.30
2018-01-02T02:53:25.585Z,8.65
2018-01-02T02:55:53.154Z,9.32
2018-01-02T02:58:20.716Z,9.75
2018-01-02T03:00:49.341Z,7.15
2018-01-02T03:03:16.930Z,5.65
2018-01-02T03:05:44.490Z,6.57
2018-01-02T03:08:12.001Z,4.22
2018-01-02T03:10:39.631Z,5.78
2018-01-02T03:13:07.169Z,9.05
2018-01-02T03:15:34.724Z,5.40
2018-01-02T03:18:02.382Z,4.50
2018-01-02T03:20:30.522Z,8.95
2018-01-02T03:22:58.118Z,7.82
2018-01-02T03:25:25.684Z,6.10
2018-01-02T03:27:53.234Z,11.15
2018-01-02T03:30:20.880Z,6.03
2018-01-02T03:32:48.437Z,8.77
2018-01-02T03:35:16.711Z,10.82
2018-01-02T03:37:44.284Z,16.20
2018-01-02T03:40:11.909Z,12.77
2018-01-02T03:42:39.574Z,9.73
2018-01-02T03:45:07.112Z,13.40
2018-01-02T03:47:34.672Z,10.80
2018-01-02T03:50:02.201Z,15.00
2018-01-02T03:52:29.782Z,11.45
2018-01-02T03:54:57.392Z,17.48
2018-01-02T03:57:24.938Z,11.65
2018-01-02T03:59:53.330Z,19.77
2018-01-02T04:02:21.694Z,15.82
2018-01-02T04:04:49.243Z,19.48
2018-01-02T04:07:16.861Z,18.30
2018-01-02T04:09:44.393Z,11.85
2018-01-02T04:12:12.712Z,15.57
2018-01-02T04:14:40.277Z,24.27
2018-01-02T04:17:07.858Z,15.75
2018-01-02T04:19:36.282Z,13.27
2018-01-02T04:22:04.036Z,18.65
2018-01-02T04:24:32.376Z,17.35
2018-01-02T04:26:59.965Z,17.37
2018-01-02T04:29:27.492Z,17.95
2018-01-02T04:31:55.568Z,21.87
2018-01-02T04:34:23.186Z,15.05
2018-01-02T04:36:50.712Z,24.17
2018-01-02T04:39:18.292Z,18.85
2018-01-02T04:41:45.863Z,16.30
2018-01-02T04:44:13.432Z,20.52
2018-01-02T04:46:41.361Z,24.50
2018-01-02T04:49:08.941Z,24.37
2018-01-02T04:51:36.979Z,15.25
2018-01-02T04:54:04.522Z,27.35
2018-01-02T04:56:32.103Z,17.25
2018-01-02T04:58:59.688Z,19.27
2018-01-02T05:01:28.056Z,27.08
2018-01-02T05:03:55.604Z,17.10
2018-01-02T05:06:23.388Z,17.10
2018-01-02T05:08:50.925Z,16.75
2018-01-02T05:11:18.490Z,17.55
2018-01-02T05:13:46.049Z,21.08
2018-01-02T05:16:13.636Z,22.23
2018-01-02T05:18:41.969Z,19.85
2018-01-02T05:21:09.521Z,17.52
2018-01-02T05:23:37.046Z,22.27
2018-01-02T05:26:05.883Z,21.77
2018-01-02T05:28:33.440Z,15.48
2018-01-02T05:31:00.987Z,16.33
2018-01-02T05:33:28.544Z,22.37
2018-01-02T05:35:56.117Z,20.88
2018-01-02T05:38:23.700Z,17.65
2018-01-02T05:40:52.053Z,24.87
2018-01-02T05:43:19.646Z,18.45
2018-01-02T05:45:47.993Z,25.23
2018-01-02T05:48:15.567Z,20.45
2018-01-02T05:50:43.091Z,27.85
2018-01-02T05:53:10.713Z,31.87
2018-01-02T05:55:38.297Z,22.83
2018-01-02T05:58:05.852Z,26.75
2018-01-02T06:00:33.462Z,19.08
2018-01-02T06:03:01.062Z,29.33
2018-01-02T06:05:29.422Z,28.52
2018-01-02T06:07:57.102Z,25.60
2018-01-02T06:10:24.757Z,33.60
2018-01-02T06:12:53.105Z,34.28
2018-01-02T06:15:21.457Z,26.67
2018-01-02T06:17:49.013Z,29.65
2018-01-02T06:20:19.037Z,32.83
2018-01-02T06:22:46.572Z,28.52
2018-01-02T06:25:14.142Z,31.23
2018-01-02T06:27:42.332Z,25.30
2018-01-02T06:30:11.719Z,25.83
2018-01-02T06:32:39.286Z,33.28
2018-01-02T06:35:06.880Z,24.87
2018-01-02T06:37:34.409Z,24.30
2018-01-02T06:40:02.149Z,29.02
2018-01-02T06:42:30.045Z,25.60
2018-01-02T06:44:57.852Z,36.28
2018-01-02T06:47:26.220Z,29.25
2018-01-02T06:49:53.767Z,29.23
2018-01-02T06:52:21.284Z,35.40
2018-01-02T06:54:48.930Z,25.10
2018-01-02T06:57:17.087Z,29.30
2018-01-02T06:59:45.429Z,32.72
2018-01-02T07:02:13.239Z,35.20
2018-01-02T07:04:40.821Z,30.62
2018-01-02T07:07:08.367Z,33.05
2018-01-02T07:09:35.928Z,30.73
2018-01-02T07:12:03.489Z,33.95
2018-01-02T07:14:31.038Z,26.90
2018-01-02T07:16:59.108Z,25.20
2018-01-02T07:19:26.668Z,30.05
2018-01-02T07:21:55.737Z,65.32
2018-01-02T07:24:23.432Z,28.10
2018-01-02T07:26:51.762Z,28.42
2018-01-02T07:29:19.334Z,27.60
2018-01-02T07:31:46.922Z,24.35
2018-01-02T07:34:15.257Z,26.77
2018-01-02T07:36:42.825Z,32.13
2018-01-02T07:39:10.493Z,40.47
2018-01-02T07:41:38.028Z,36.88
2018-01-02T07:44:05.615Z,27.75
2018-01-02T07:46:33.146Z,28.70
2018-01-02T07:49:01.452Z,30.02
2018-01-02T07:51:29.118Z,32.88
2018-01-02T07:53:56.809Z,30.88
2018-01-02T07:56:24.369Z,28.80
2018-01-02T07:58:52.081Z,27.87
2018-01-02T08:01:21.101Z,35.00
2018-01-02T08:03:48.827Z,28.40
2018-01-02T08:06:16.441Z,31.27
2018-01-02T08:08:44.772Z,21.65
2018-01-02T08:11:12.652Z,28.55
2018-01-02T08:13:40.317Z,29.40
2018-01-02T08:16:08.798Z,22.15
2018-01-02T08:18:36.456Z,37.30
2018-01-02T08:21:04.056Z,22.05
2018-01-02T08:23:31.678Z,28.48
2018-01-02T08:25:59.840Z,21.10
2018-01-02T08:28:27.439Z,21.62
2018-01-02T08:30:55.741Z,24.05
2018-01-02T08:33:23.320Z,22.50
2018-01-02T08:35:51.005Z,20.73
2018-01-02T08:38:18.574Z,20.35
2018-01-02T08:40:46.221Z,20.45
2018-01-02T08:43:13.935Z,20.65
2018-01-02T08:45:41.611Z,22.67
2018-01-02T08:48:09.293Z,15.52
2018-01-02T08:50:36.890Z,19.80
2018-01-02T08:53:05.201Z,22.55
2018-01-02T08:55:32.759Z,21.42
2018-01-02T08:58:00.332Z,19.40
2018-01-02T09:00:27.873Z,19.20
2018-01-02T09:02:55.433Z,19.10
2018-01-02T09:05:23.053Z,21.27
2018-01-02T09:07:51.370Z,18.67
2018-01-02T09:10:18.938Z,15.75
2018-01-02T09:12:47.389Z,18.50
2018-01-02T09:15:14.952Z,18.85
2018-01-02T09:17:43.278Z,18.12
2018-01-02T09:20:10.881Z,18.90
2018-01-02T09:22:38.520Z,21.45
2018-01-02T09:25:06.838Z,12.18
2018-01-02T09:27:34.588Z,18.48
2018-01-02T09:30:02.221Z,7.35
2018-01-02T09:32:30.583Z,15.70
2018-01-02T09:34:58.229Z,14.15
2018-01-02T09:37:25.815Z,7.45
2018-01-02T09:39:54.153Z,10.82
2018-01-02T09:42:21.778Z,16.40
2018-01-02T09:44:49.376Z,13.10
2018-01-02T09:47:16.970Z,8.20
2018-01-02T09:49:45.286Z,16.15
2018-01-02T09:52:12.875Z,13.35
2018-01-02T09:54:41.593Z,17.27
2018-01-02T09:57:09.945Z,14.10
2018-01-02T09:59:37.729Z,9.82
2018-01-02T10:02:06.087Z,14.00
2018-01-02T10:04:47.818Z,10.73
2018-01-02T10:07:22.314Z,10.73
2018-01-02T10:09:49.870Z,9.27
2018-01-02T10:12:17.547Z,6.72
2018-01-02T10:14:45.755Z,7.82
2018-01-02T10:17:13.311Z,6.75
2018-01-02T10:19:40.827Z,9.32
2018-01-02T10:22:08.444Z,6.10
2018-01-02T10:24:36.180Z,10.05
2018-01-02T10:27:03.810Z,7.12
2018-01-02T10:29:31.360Z,13.18
2018-01-02T10:31:58.974Z,8.85
2018-01-02T10:34:26.631Z,9.88
2018-01-02T10:36:54.402Z,9.02
2018-01-02T10:39:22.799Z,8.63
2018-01-02T10:41:51.826Z,7.35
2018-01-02T10:44:19.429Z,7.45
2018-01-02T10:46:47.262Z,7.47
2018-01-02T10:49:14.975Z,11.00
2018-01-02T10:51:42.505Z,13.27
2018-01-02T10:54:10.373Z,21.73
2018-01-02T10:56:39.656Z,7.97
2018-01-02T10:59:07.236Z,6.97
2018-01-02T11:01:35.698Z,12.35
2018-01-02T11:04:03.286Z,13.52
2018-01-02T11:06:30.846Z,9.07
2018-01-02T11:08:58.461Z,12.48
2018-01-02T11:11:32.171Z,6.68
2018-01-02T11:13:59.863Z,11.12
2018-01-02T11:16:27.457Z,9.25
2018-01-02T11:18:55.046Z,10.52
2018-01-02T11:21:22.719Z,9.48
2018-01-02T11:23:51.008Z,9.02
2018-01-02T11:26:18.806Z,9.38
2018-01-02T11:28:46.624Z,7.95
2018-01-02T11:31:14.196Z,7.90
2018-01-02T11:33:41.772Z,12.48
2018-01-02T11:36:10.131Z,10.52
2018-01-02T11:38:38.540Z,12.35
2018-01-02T11:41:06.166Z,9.95
2018-01-02T11:43:33.865Z,5.82
2018-01-02T11:46:01.486Z,9.85
2018-01-02T11:48:29.070Z,7.40
2018-01-02T11:50:56.609Z,6.07
2018-01-02T11:53:24.285Z,7.82
2018-01-02T11:55:51.856Z,12.30
2018-01-02T11:58:20.102Z,8.60
2018-01-02T12:00:47.842Z,6.32
2018-01-02T12:03:15.510Z,4.25
2018-01-02T12:05:43.146Z,11.15
2018-01-02T12:08:10.692Z,15.80
2018-01-02T12:10:38.300Z,11.27
2018-01-02T12:13:05.942Z,11.57
2018-01-02T12:15:33.863Z,8.32
2018-01-02T12:18:02.212Z,4.90
2018-01-02T12:20:30.602Z,8.43
2018-01-02T12:22:58.215Z,6.85
2018-01-02T12:25:25.844Z,13.62
2018-01-02T12:27:55.052Z,9.13
2018-01-02T12:30:22.665Z,11.25
2018-01-02T12:32:51.490Z,8.32
2018-01-02T12:35:19.050Z,12.73
2018-01-02T12:37:47.539Z,9.23
2018-01-02T12:40:15.195Z,6.62
2018-01-02T12:42:42.987Z,7.45
2018-01-02T12:45:11.201Z,6.32
2018-01-02T12:47:38.875Z,8.13
2018-01-02T12:50:06.416Z,7.25
2018-01-02T12:52:34.014Z,8.93
2018-01-02T12:55:02.813Z,9.48
2018-01-02T12:57:30.435Z,9.55
2018-01-02T12:59:58.098Z,11.10
2018-01-02T13:07:18.738Z,20.00
2018-01-02T13:09:46.361Z,16.17
2018-01-02T13:12:14.168Z,16.65
2018-01-02T13:14:41.763Z,17.40
2018-01-02T13:17:10.140Z,22.13
2018-01-02T13:19:38.862Z,11.38
2018-01-02T13:22:06.580Z,17.27
2018-01-02T13:24:34.940Z,10.80
2018-01-02T13:27:02.614Z,7.80
2018-01-02T13:29:30.304Z,8.07
2018-01-02T13:31:57.888Z,9.38
2018-01-02T13:34:25.498Z,17.27
2018-01-02T13:36:53.087Z,12.23
2018-01-02T13:39:20.704Z,12.48
2018-01-02T13:41:48.909Z,4.47
2018-01-02T13:44:16.478Z,11.20
2018-01-02T13:46:45.714Z,8.50
2018-01-02T13:49:13.366Z,11.95
2018-01-02T13:51:40.998Z,9.30
2018-01-02T13:54:08.603Z,11.77
2018-01-02T13:56:36.165Z,12.43
2018-01-02T13:59:04.671Z,6.97
2018-01-02T14:01:33.096Z,6.85
2018-01-02T14:04:00.682Z,16.92
2018-01-02T14:06:28.255Z,11.50
2018-01-02T14:08:55.993Z,13.05
2018-01-02T14:11:23.679Z,11.45
2018-01-02T14:13:51.347Z,14.50
2018-01-02T14:16:19.095Z,8.88
2018-01-02T14:18:46.693Z,10.80
2018-01-02T14:21:15.058Z,11.30
2018-01-02T14:23:42.615Z,10.63
2018-01-02T14:26:11.055Z,8.32
2018-01-02T14:28:38.572Z,9.13
2018-01-02T14:31:07.020Z,11.88
2018-01-02T14:33:34.638Z,10.70
2018-01-02T14:36:02.258Z,11.25
2018-01-02T14:38:29.886Z,11.00
2018-01-02T14:40:57.464Z,14.20
2018-01-02T14:43:25.039Z,11.57
2018-01-02T14:45:52.624Z,16.17
2018-01-02T14:48:21.406Z,14.57
2018-01-02T14:50:49.083Z,12.60
2018-01-02T14:53:17.611Z,19.73
2018-01-02T14:55:45.116Z,14.48
2018-01-02T14:58:12.670Z,20.35
2018-01-02T15:00:41.121Z,17.35
2018-01-02T15:03:08.745Z,15.18
2018-01-02T15:05:36.264Z,18.25
2018-01-02T15:08:03.844Z,14.32
2018-01-02T15:10:32.207Z,13.02
2018-01-02T15:13:00.528Z,17.60
2018-01-02T15:15:28.128Z,18.92
2018-01-02T15:17:56.515Z,19.70
2018-01-02T15:20:24.108Z,21.12
2018-01-02T15:22:51.682Z,14.02
2018-01-02T15:25:19.209Z,27.45
2018-01-02T15:27:46.778Z,11.15
2018-01-02T15:30:15.073Z,15.20
2018-01-02T15:32:42.629Z,20.50
2018-01-02T15:35:10.187Z,19.77
2018-01-02T15:37:38.092Z,19.55
2018-01-02T15:40:06.513Z,16.60
2018-01-02T15:42:35.896Z,12.45
2018-01-02T15:45:04.476Z,14.25
2018-01-02T15:47:32.117Z,17.70
2018-01-02T15:49:59.706Z,12.43
2018-01-02T15:52:27.679Z,16.80
2018-01-02T15:54:55.270Z,16.37
2018-01-02T15:57:23.804Z,14.82
2018-01-02T15:59:51.716Z,13.00
2018-01-02T16:02:19.413Z,11.15
2018-01-02T16:04:46.971Z,17.85
2018-01-02T16:07:14.543Z,16.35
2018-01-02T16:09:42.128Z,22.55
2018-01-02T16:12:09.684Z,12.48
2018-01-02T16:14:37.328Z,11.63
2018-01-02T16:17:04.973Z,18.95
2018-01-02T16:19:32.790Z,9.38
2018-01-02T16:22:01.180Z,11.20
2018-01-02T16:24:28.705Z,22.42
2018-01-02T16:26:57.085Z,17.85
2018-01-02T16:29:25.434Z,23.75
2018-01-02T16:31:52.977Z,13.10
2018-01-02T16:34:21.360Z,21.70
2018-01-02T16:36:49.017Z,13.73
2018-01-02T16:39:16.657Z,18.35
2018-01-02T16:41:44.231Z,18.05
2018-01-02T16:44:11.894Z,12.15
2018-01-02T16:46:39.566Z,24.40
2018-01-02T16:49:07.169Z,10.45
2018-01-02T16:51:34.894Z,11.70
2018-01-02T16:54:03.425Z,11.32
2018-01-02T16:56:31.005Z,11.00
2018-01-02T16:58:59.572Z,15.43
2018-01-02T17:01:27.185Z,16.83
2018-01-02T17:03:55.341Z,13.45
2018-01-02T17:06:22.945Z,10.55
2018-01-02T17:08:50.608Z,9.85
2018-01-02T17:11:18.168Z,11.95
2018-01-02T17:13:45.799Z,10.30
2018-01-02T17:16:13.426Z,22.62
2018-01-02T17:18:41.166Z,15.70
2018-01-02T17:21:09.539Z,11.00
2018-01-02T17:23:37.121Z,34.47
2018-01-02T17:26:04.702Z,13.80
2018-01-02T17:28:32.342Z,16.23
2018-01-02T17:31:00.621Z,18.52
2018-01-02T17:33:28.259Z,7.07
2018-01-02T17:35:55.889Z,12.15
2018-01-02T17:38:23.444Z,14.00
2018-01-02T17:40:51.093Z,12.57
2018-01-02T17:43:18.714Z,12.73
2018-01-02T17:45:46.379Z,19.77
2018-01-02T17:48:14.773Z,7.12
2018-01-02T17:50:43.154Z,9.98
2018-01-02T17:53:10.826Z,23.17
2018-01-02T17:55:38.417Z,15.77
2018-01-02T17:58:05.945Z,11.77
2018-01-02T18:00:33.537Z,9.73
2018-01-02T18:03:01.143Z,12.23
2018-01-02T18:05:29.116Z,11.80
2018-01-02T18:07:56.639Z,21.27
2018-01-02T18:10:24.333Z,8.80
2018-01-02T18:12:52.983Z,6.20
2018-01-02T18:15:20.771Z,13.05
2018-01-02T18:17:49.206Z,13.18
2018-01-02T18:20:16.843Z,12.52
2018-01-02T18:22:44.411Z,9.13
2018-01-02T18:25:12.050Z,12.52
2018-01-02T18:27:39.623Z,14.43
2018-01-02T18:30:07.269Z,11.30
2018-01-02T18:32:34.809Z,9.23
2018-01-02T18:35:02.547Z,19.95
2018-01-02T18:37:30.063Z,10.00
2018-01-02T18:39:58.397Z,11.00
2018-01-02T18:42:25.987Z,17.17
2018-01-02T18:44:53.603Z,10.63
2018-01-02T18:47:21.203Z,11.27
2018-01-02T18:49:49.014Z,9.88
2018-01-02T18:52:17.324Z,8.48
2018-01-02T18:54:44.882Z,9.27
2018-01-02T18:57:13.800Z,15.80
2018-01-02T18:59:41.939Z,7.25
2018-01-02T19:02:09.651Z,14.00
2018-01-02T19:04:37.280Z,10.18
2018-01-02T19:07:04.851Z,13.57
2018-01-02T19:09:33.677Z,6.55
2018-01-02T19:12:01.237Z,8.38
2018-01-02T19:14:29.587Z,9.95
2018-01-02T19:16:57.350Z,7.15
2018-01-02T19:19:25.086Z,13.57
2018-01-02T19:21:52.663Z,11.25
2018-01-02T19:24:20.231Z,12.25
2018-01-02T19:26:47.905Z,6.75
2018-01-02T19:29:15.838Z,19.70
2018-01-02T19:31:44.753Z,11.40
2018-01-02T19:34:13.430Z,25.23
2018-01-02T19:36:41.014Z,13.20
2018-01-02T19:39:08.676Z,25.98
2018-01-02T19:41:36.302Z,12.98
2018-01-02T19:44:04.015Z,24.05
2018-01-02T19:46:31.621Z,21.10
2018-01-02T19:48:59.960Z,14.52
2018-01-02T19:51:27.612Z,9.10
2018-01-02T19:53:55.135Z,10.00
2018-01-02T19:56:22.676Z,16.80
2018-01-02T19:58:51.980Z,22.00
2018-01-02T20:01:20.772Z,22.15
2018-01-02T20:03:49.082Z,31.55
2018-01-02T20:06:16.700Z,9.40
2018-01-02T20:08:44.274Z,9.30
2018-01-02T20:11:11.983Z,12.95
2018-01-02T20:13:39.581Z,10.73
2018-01-02T20:16:07.930Z,11.20
2018-01-02T20:18:41.413Z,18.30
2018-01-02T20:21:09.062Z,13.80
2018-01-02T20:23:36.671Z,10.13
2018-01-02T20:26:06.091Z,6.00
2018-01-02T20:28:33.630Z,63.25
2018-01-02T20:31:01.235Z,50.70
2018-01-02T20:33:34.002Z,30.25
2018-01-02T20:36:01.620Z,18.50
2018-01-02T20:38:29.162Z,25.33
2018-01-02T20:40:56.707Z,22.67
2018-01-02T20:43:24.280Z,9.40
2018-01-02T20:45:51.917Z,18.15
2018-01-02T20:48:19.480Z,18.95
2018-01-02T20:50:47.085Z,7.12
2018-01-02T20:53:14.702Z,13.55
2018-01-02T20:55:43.155Z,12.50
2018-01-02T20:58:11.375Z,11.00
2018-01-02T21:00:40.009Z,17.48
2018-01-02T21:03:07.600Z,17.17
2018-01-02T21:05:35.137Z,13.30
2018-01-02T21:08:02.801Z,8.35
2018-01-02T21:10:30.432Z,18.98
2018-01-02T21:12:58.792Z,8.43
2018-01-02T21:15:27.090Z,7.57
2018-01-02T21:17:55.568Z,16.98
2018-01-02T21:20:23.201Z,11.00
2018-01-02T21:22:51.044Z,15.98
2018-01-02T21:25:18.689Z,7.15
2018-01-02T21:27:46.215Z,7.70
2018-01-02T21:30:14.558Z,12.95
2018-01-02T21:32:42.111Z,2.95
2018-01-02T21:35:09.772Z,6.25
2018-01-02T21:37:37.351Z,8.73
2018-01-02T21:40:04.938Z,5.62
2018-01-02T21:42:32.649Z,7.82
2018-01-02T21:45:00.771Z,4.37
2018-01-02T21:47:28.476Z,5.10
2018-01-02T21:49:56.034Z,6.57
2018-01-02T21:52:23.579Z,4.68
2018-01-02T21:54:51.144Z,8.48
2018-01-02T21:57:18.741Z,8.35
2018-01-02T21:59:46.401Z,3.53
2018-01-02T22:02:14.956Z,2.55
2018-01-02T22:04:42.511Z,2.30
2018-01-02T22:07:10.179Z,4.45
2018-01-02T22:09:37.882Z,3.72
2018-01-02T22:12:05.621Z,7.25
2018-01-02T22:14:33.280Z,2.50
2018-01-02T22:17:00.781Z,3.75
2018-01-02T22:19:28.645Z,1.90
2018-01-02T22:21:56.257Z,2.45
2018-01-02T22:24:23.892Z,5.18
2018-01-02T22:26:52.266Z,6.40
2018-01-02T22:29:20.633Z,4.50
2018-01-02T22:31:48.192Z,6.00
2018-01-02T22:34:15.797Z,9.88
2018-01-02T22:36:44.154Z,3.15
2018-01-02T22:39:13.119Z,2.45
2018-01-02T22:41:40.655Z,3.78
2018-01-02T22:44:09.253Z,2.15
2018-01-02T22:46:36.784Z,5.32
2018-01-02T22:49:04.365Z,5.97
2018-01-02T22:51:31.962Z,1.80
2018-01-02T22:53:59.482Z,2.40
2018-01-02T22:56:27.036Z,2.58
2018-01-02T22:58:54.621Z,2.70
2018-01-02T23:01:23.161Z,3.65
2018-01-02T23:03:50.765Z,3.95
2018-01-02T23:06:18.338Z,2.30
2018-01-02T23:08:45.916Z,2.37
2018-01-02T23:11:15.051Z,1.60
2018-01-02T23:13:43.131Z,3.72
2018-01-02T23:16:11.775Z,7.97
2018-01-02T23:18:40.313Z,4.37
2018-01-02T23:23:41.989Z,3.40
2018-01-02T23:26:10.265Z,3.55
2018-01-02T23:28:38.578Z,3.42
2018-01-02T23:31:06.204Z,7.80
2018-01-02T23:33:33.788Z,2.60
2018-01-02T23:36:01.466Z,4.10
2018-01-02T23:38:29.003Z,5.03
2018-01-02T23:40:58.224Z,2.78
2018-01-02T23:43:25.857Z,2.30
2018-01-02T23:45:54.205Z,3.08
2018-01-02T23:48:21.960Z,4.75
2018-01-02T23:50:49.575Z,6.32
2018-01-02T23:53:17.216Z,1.85
2018-01-02T23:55:46.878Z,3.03
2018-01-02T23:58:14.589Z,3.15
